createdAt,value
2022-11-29T00:00:55.563Z,101199.00
2022-11-29T00:03:22.030Z,101208.00
2022-11-29T00:05:48.558Z,101220.00
2022-11-29T00:08:15.023Z,101221.00
2022-11-29T00:10:42.745Z,101214.00
2022-11-29T00:13:10.360Z,101206.00
2022-11-29T00:15:37.949Z,101213.00
2022-11-29T00:18:05.401Z,101208.00
2022-11-29T00:20:32.398Z,101211.00
2022-11-29T00:22:59.108Z,101205.00
2022-11-29T00:25:26.408Z,101206.00
2022-11-29T00:27:53.327Z,101200.00
2022-11-29T00:30:22.109Z,101204.00
2022-11-29T00:32:51.315Z,101211.00
2022-11-29T00:35:20.100Z,101206.00
2022-11-29T00:37:46.565Z,101209.00
2022-11-29T00:40:13.077Z,101208.00
2022-11-29T00:42:39.516Z,101218.00
2022-11-29T00:45:06.420Z,101209.00
2022-11-29T00:47:35.259Z,101209.00
2022-11-29T00:50:01.796Z,101203.00
2022-11-29T00:52:28.266Z,101203.00
2022-11-29T00:54:57.656Z,101213.00
2022-11-29T00:57:26.539Z,101204.00
2022-11-29T00:59:52.995Z,101208.00
2022-11-29T01:02:19.476Z,101207.00
2022-11-29T01:04:46.164Z,101209.00
2022-11-29T01:07:13.130Z,101209.00
2022-11-29T01:09:39.568Z,101211.00
2022-11-29T01:12:06.417Z,101215.00
2022-11-29T01:14:32.879Z,101213.00
2022-11-29T01:16:59.364Z,101215.00
2022-11-29T01:19:25.833Z,101207.00
2022-11-29T01:21:52.324Z,101217.00
2022-11-29T01:24:18.781Z,101209.00
2022-11-29T01:26:45.252Z,101215.00
2022-11-29T01:29:13.126Z,101215.00
2022-11-29T01:31:39.775Z,101211.00
2022-11-29T01:34:07.115Z,101218.00
2022-11-29T01:36:36.081Z,101213.00
2022-11-29T01:39:04.679Z,101219.00
2022-11-29T01:41:33.436Z,101221.00
2022-11-29T01:44:08.557Z,101218.00
2022-11-29T01:46:40.010Z,101206.00
2022-11-29T01:49:13.341Z,101215.00
2022-11-29T01:51:44.015Z,101208.00
2022-11-29T01:54:11.693Z,101209.00
2022-11-29T01:56:38.920Z,101208.00
2022-11-29T01:59:09.236Z,101215.00
2022-11-29T02:01:36.414Z,101211.00
2022-11-29T02:04:04.314Z,101202.00
2022-11-29T02:06:30.979Z,101205.00
2022-11-29T02:08:57.417Z,101211.00
2022-11-29T02:11:53.258Z,101215.00
2022-11-29T02:14:47.560Z,101208.00
2022-11-29T02:17:41.020Z,101213.00
2022-11-29T02:20:37.282Z,101210.00
2022-11-29T02:23:21.285Z,101206.00
2022-11-29T02:26:09.499Z,101210.00
2022-11-29T02:29:00.451Z,101207.00
2022-11-29T02:32:03.758Z,101210.00
2022-11-29T02:34:48.534Z,101214.00
2022-11-29T02:37:29.957Z,101224.00
2022-11-29T02:40:32.387Z,101215.00
2022-11-29T02:43:16.026Z,101231.00
2022-11-29T02:46:02.318Z,101212.00
2022-11-29T02:48:59.741Z,101211.00
2022-11-29T02:51:51.235Z,101220.00
2022-11-29T02:54:41.754Z,101233.00
2022-11-29T02:57:20.922Z,101232.00
2022-11-29T03:00:08.119Z,101228.00
2022-11-29T03:02:43.033Z,101226.00
2022-11-29T03:05:18.959Z,101225.00
2022-11-29T03:08:23.071Z,101235.00
2022-11-29T03:11:31.261Z,101231.00
2022-11-29T03:14:28.324Z,101236.00
2022-11-29T03:17:25.736Z,101239.00
2022-11-29T03:20:02.183Z,101233.00
2022-11-29T03:22:43.298Z,101240.00
2022-11-29T03:25:19.313Z,101246.00
2022-11-29T03:28:18.667Z,101238.00
2022-11-29T03:30:56.029Z,101244.00
2022-11-29T03:33:42.021Z,101246.00
2022-11-29T03:36:11.508Z,101246.00
2022-11-29T03:38:44.764Z,101254.00
2022-11-29T03:41:25.275Z,101251.00
2022-11-29T03:43:55.263Z,101253.00
2022-11-29T03:46:31.900Z,101251.00
2022-11-29T03:49:11.229Z,101254.00
2022-11-29T03:52:00.961Z,101259.00
2022-11-29T03:55:14.802Z,101246.00
2022-11-29T03:58:05.374Z,101254.00
2022-11-29T04:00:47.454Z,101249.00
2022-11-29T04:03:28.177Z,101252.00
2022-11-29T04:06:09.729Z,101262.00
2022-11-29T04:08:48.218Z,101252.00
2022-11-29T04:11:36.800Z,101245.00
2022-11-29T04:14:30.431Z,101259.00
2022-11-29T04:17:16.854Z,101246.00
2022-11-29T04:19:59.811Z,101260.00
2022-11-29T04:22:54.006Z,101258.00
2022-11-29T04:25:54.876Z,101260.00
2022-11-29T04:29:08.683Z,101263.00
2022-11-29T04:31:53.647Z,101256.00
2022-11-29T04:34:57.308Z,101257.00
2022-11-29T04:38:02.937Z,101260.00
2022-11-29T04:40:57.622Z,101263.00
2022-11-29T04:43:50.762Z,101262.00
2022-11-29T04:46:38.407Z,101261.00
2022-11-29T04:49:39.608Z,101271.00
2022-11-29T04:52:23.320Z,101269.00
2022-11-29T04:55:27.823Z,101275.00
2022-11-29T04:58:13.063Z,101268.00
2022-11-29T05:00:49.593Z,101274.00
2022-11-29T05:03:29.202Z,101276.00
2022-11-29T05:06:09.916Z,101271.00
2022-11-29T05:09:03.050Z,101271.00
2022-11-29T05:12:11.977Z,101275.00
2022-11-29T05:15:04.965Z,101279.00
2022-11-29T05:17:44.680Z,101276.00
2022-11-29T05:20:31.025Z,101293.00
2022-11-29T05:23:06.380Z,101285.00
2022-11-29T05:25:44.172Z,101289.00
2022-11-29T05:28:32.934Z,101291.00
2022-11-29T05:31:13.689Z,101302.00
2022-11-29T05:34:00.189Z,101297.00
2022-11-29T05:36:55.708Z,101306.00
2022-11-29T05:39:45.926Z,101305.00
2022-11-29T05:42:46.819Z,101308.00
2022-11-29T05:45:43.171Z,101306.00
2022-11-29T05:48:34.235Z,101305.00
2022-11-29T05:51:21.687Z,101317.00
2022-11-29T05:54:09.651Z,101320.00
2022-11-29T05:57:00.032Z,101319.00
2022-11-29T05:59:29.123Z,101321.00
2022-11-29T06:02:13.927Z,101323.00
2022-11-29T06:05:03.905Z,101324.00
2022-11-29T06:07:38.756Z,101322.00
2022-11-29T06:10:29.423Z,101333.00
2022-11-29T06:13:18.686Z,101340.00
2022-11-29T06:16:08.921Z,101347.00
2022-11-29T06:19:11.946Z,101342.00
2022-11-29T06:21:59.422Z,101346.00
2022-11-29T06:24:34.319Z,101343.00
2022-11-29T06:27:12.671Z,101351.00
2022-11-29T06:30:06.963Z,101351.00
2022-11-29T06:32:51.276Z,101359.00
2022-11-29T06:35:37.852Z,101359.00
2022-11-29T06:38:12.547Z,101357.00
2022-11-29T06:40:39.168Z,101365.00
2022-11-29T06:43:05.842Z,101364.00
2022-11-29T06:45:32.757Z,101372.00
2022-11-29T06:48:03.645Z,101369.00
2022-11-29T06:50:43.795Z,101371.00
2022-11-29T06:53:55.923Z,101377.00
2022-11-29T06:56:29.602Z,101377.00
2022-11-29T06:59:32.302Z,101387.00
2022-11-29T07:02:10.743Z,101390.00
2022-11-29T07:04:53.579Z,101381.00
2022-11-29T07:07:22.282Z,101392.00
2022-11-29T07:09:52.133Z,101386.00
2022-11-29T07:12:19.355Z,101384.00
2022-11-29T07:14:46.199Z,101382.00
2022-11-29T07:17:23.750Z,101384.00
2022-11-29T07:20:13.905Z,101391.00
2022-11-29T07:23:12.934Z,101390.00
2022-11-29T07:25:50.599Z,101389.00
2022-11-29T07:28:31.176Z,101390.00
2022-11-29T07:31:12.117Z,101396.00
2022-11-29T07:33:47.013Z,101408.00
2022-11-29T07:36:35.412Z,101405.00
2022-11-29T07:39:18.023Z,101404.00
2022-11-29T07:42:11.908Z,101399.00
2022-11-29T07:44:38.437Z,101408.00
2022-11-29T07:47:05.132Z,101408.00
2022-11-29T07:49:31.638Z,101415.00
2022-11-29T07:51:58.100Z,101422.00
2022-11-29T07:54:24.758Z,101421.00
2022-11-29T07:56:51.219Z,101424.00
2022-11-29T07:59:17.764Z,101420.00
2022-11-29T08:01:45.492Z,101423.00
2022-11-29T08:04:11.927Z,101426.00
2022-11-29T08:06:38.405Z,101424.00
2022-11-29T08:09:06.790Z,101423.00
2022-11-29T08:11:33.882Z,101423.00
2022-11-29T08:14:02.024Z,101422.00
2022-11-29T08:16:28.548Z,101435.00
2022-11-29T08:18:55.061Z,101434.00
2022-11-29T08:21:21.685Z,101428.00
2022-11-29T08:23:49.298Z,101440.00
2022-11-29T08:26:17.441Z,101435.00
2022-11-29T08:28:44.690Z,101431.00
2022-11-29T08:31:13.418Z,101436.00
2022-11-29T08:33:42.826Z,101430.00
2022-11-29T08:36:12.600Z,101441.00
2022-11-29T08:38:39.097Z,101435.00
2022-11-29T08:41:07.981Z,101446.00
2022-11-29T08:43:34.851Z,101435.00
2022-11-29T08:46:01.848Z,101436.00
2022-11-29T08:48:28.639Z,101440.00
2022-11-29T08:50:56.382Z,101443.00
2022-11-29T08:53:41.875Z,101445.00
2022-11-29T08:56:49.399Z,101443.00
2022-11-29T08:58:57.438Z,101444.00
2022-11-29T09:01:23.992Z,101441.00
2022-11-29T09:04:00.549Z,101446.00
2022-11-29T09:06:28.730Z,101443.00
2022-11-29T09:08:56.533Z,101443.00
2022-11-29T09:11:26.295Z,101452.00
2022-11-29T09:13:56.348Z,101446.00
2022-11-29T09:16:25.473Z,101449.00
2022-11-29T09:18:54.971Z,101457.00
2022-11-29T09:21:26.289Z,101452.00
2022-11-29T09:23:58.648Z,101464.00
2022-11-29T09:26:34.313Z,101457.00
2022-11-29T09:29:03.743Z,101461.00
2022-11-29T09:31:31.470Z,101466.00
2022-11-29T09:33:58.087Z,101463.00
2022-11-29T09:36:28.528Z,101470.00
2022-11-29T09:38:56.198Z,101460.00
2022-11-29T09:41:38.077Z,101462.00
2022-11-29T09:44:21.763Z,101470.00
2022-11-29T09:47:03.531Z,101461.00
2022-11-29T09:49:54.442Z,101463.00
2022-11-29T09:52:34.204Z,101454.00
2022-11-29T09:55:29.962Z,101461.00
2022-11-29T09:57:59.561Z,101461.00
2022-11-29T10:00:27.672Z,101466.00
2022-11-29T10:03:00.673Z,101459.00
2022-11-29T10:05:44.251Z,101456.00
2022-11-29T10:09:10.467Z,101457.00
2022-11-29T10:11:43.701Z,101465.00
2022-11-29T10:14:18.189Z,101472.00
2022-11-29T10:16:51.769Z,101476.00
2022-11-29T10:19:26.918Z,101474.00
2022-11-29T10:22:03.706Z,101473.00
2022-11-29T10:24:32.438Z,101470.00
2022-11-29T10:26:58.928Z,101477.00
2022-11-29T10:29:25.824Z,101473.00
2022-11-29T10:31:56.861Z,101480.00
2022-11-29T10:34:25.623Z,101485.00
2022-11-29T10:36:59.499Z,101481.00
2022-11-29T10:39:42.361Z,101491.00
2022-11-29T10:42:35.106Z,101491.00
2022-11-29T10:45:02.377Z,101492.00
2022-11-29T10:47:28.855Z,101481.00
2022-11-29T10:49:57.559Z,101482.00
2022-11-29T10:52:24.184Z,101485.00
2022-11-29T10:54:56.835Z,101493.00
2022-11-29T10:57:23.482Z,101484.00
2022-11-29T11:00:08.810Z,101488.00
2022-11-29T11:02:36.385Z,101482.00
2022-11-29T11:05:10.908Z,101492.00
2022-11-29T11:07:38.189Z,101485.00
2022-11-29T11:10:19.872Z,101488.00
2022-11-29T11:13:18.706Z,101489.00
2022-11-29T11:15:47.876Z,101474.00
2022-11-29T11:18:21.749Z,101488.00
2022-11-29T11:20:57.878Z,101494.00
2022-11-29T11:23:41.387Z,101489.00
2022-11-29T11:26:12.678Z,101490.00
2022-11-29T11:28:49.662Z,101486.00
2022-11-29T11:31:26.420Z,101484.00
2022-11-29T11:33:53.220Z,101492.00
2022-11-29T11:36:19.780Z,101494.00
2022-11-29T11:39:10.236Z,101489.00
2022-11-29T11:41:59.665Z,101504.00
2022-11-29T11:44:52.344Z,101502.00
2022-11-29T11:47:28.504Z,101497.00
2022-11-29T11:50:04.191Z,101502.00
2022-11-29T11:52:40.187Z,101507.00
2022-11-29T11:55:22.369Z,101504.00
2022-11-29T11:58:12.616Z,101514.00
2022-11-29T12:01:09.650Z,101500.00
2022-11-29T12:04:13.720Z,101502.00
2022-11-29T12:06:49.551Z,101509.00
2022-11-29T12:09:41.059Z,101497.00
2022-11-29T12:12:13.730Z,101495.00
2022-11-29T12:14:46.145Z,101498.00
2022-11-29T12:17:22.590Z,101504.00
2022-11-29T12:20:07.414Z,101503.00
2022-11-29T12:23:17.145Z,101521.00
2022-11-29T12:26:13.720Z,101523.00
2022-11-29T12:28:47.076Z,101517.00
2022-11-29T12:31:36.031Z,101518.00
2022-11-29T12:34:23.540Z,101518.00
2022-11-29T12:37:02.598Z,101519.00
2022-11-29T12:39:50.804Z,101516.00
2022-11-29T12:42:40.831Z,101528.00
2022-11-29T12:45:23.712Z,101528.00
2022-11-29T12:48:14.726Z,101530.00
2022-11-29T12:51:06.925Z,101538.00
2022-11-29T12:54:05.906Z,101532.00
2022-11-29T12:56:49.964Z,101536.00
2022-11-29T12:59:24.235Z,101540.00
2022-11-29T13:02:30.961Z,101544.00
2022-11-29T13:05:12.717Z,101551.00
2022-11-29T13:08:15.006Z,101548.00
2022-11-29T13:11:02.686Z,101543.00
2022-11-29T13:13:40.792Z,101560.00
2022-11-29T13:16:40.795Z,101559.00
2022-11-29T13:19:30.561Z,101559.00
2022-11-29T13:22:12.160Z,101566.00
2022-11-29T13:24:52.610Z,101561.00
2022-11-29T13:27:44.753Z,101564.00
2022-11-29T13:30:14.924Z,101571.00
2022-11-29T13:33:01.434Z,101567.00
2022-11-29T13:35:39.403Z,101560.00
2022-11-29T13:38:25.235Z,101565.00
2022-11-29T13:41:04.709Z,101569.00
2022-11-29T13:43:56.525Z,101562.00
2022-11-29T13:46:36.169Z,101567.00
2022-11-29T13:49:03.730Z,101573.00
2022-11-29T13:51:35.456Z,101574.00
2022-11-29T13:54:04.692Z,101567.00
2022-11-29T13:56:45.912Z,101568.00
2022-11-29T13:59:30.628Z,101574.00
2022-11-29T14:01:58.622Z,101575.00
2022-11-29T14:04:36.544Z,101580.00
2022-11-29T14:07:06.712Z,101577.00
2022-11-29T14:09:38.527Z,101576.00
2022-11-29T14:12:18.296Z,101574.00
2022-11-29T14:14:56.708Z,101578.00
2022-11-29T14:17:54.406Z,101585.00
2022-11-29T14:20:24.799Z,101589.00
2022-11-29T14:23:07.820Z,101581.00
2022-11-29T14:25:52.311Z,101585.00
2022-11-29T14:28:22.009Z,101591.00
2022-11-29T14:31:01.746Z,101585.00
2022-11-29T14:33:46.732Z,101596.00
2022-11-29T14:36:30.037Z,101592.00
2022-11-29T14:39:24.948Z,101598.00
2022-11-29T14:42:03.314Z,101592.00
2022-11-29T14:44:31.779Z,101601.00
2022-11-29T14:47:04.896Z,101601.00
2022-11-29T14:49:39.478Z,101599.00
2022-11-29T14:52:15.036Z,101605.00
2022-11-29T14:54:56.173Z,101602.00
2022-11-29T14:57:44.949Z,101612.00
2022-11-29T15:00:12.558Z,101608.00
2022-11-29T15:02:42.954Z,101599.00
2022-11-29T15:05:24.287Z,101606.00
2022-11-29T15:08:03.215Z,101616.00
2022-11-29T15:10:33.575Z,101617.00
2022-11-29T15:13:01.092Z,101621.00
2022-11-29T15:16:09.423Z,101625.00
2022-11-29T15:19:07.108Z,101626.00
2022-11-29T15:21:53.228Z,101625.00
2022-11-29T15:24:20.592Z,101629.00
2022-11-29T15:27:02.078Z,101626.00
2022-11-29T15:29:30.732Z,101633.00
2022-11-29T15:32:00.521Z,101631.00
2022-11-29T15:34:45.103Z,101636.00
2022-11-29T15:37:22.928Z,101642.00
2022-11-29T15:40:01.764Z,101643.00
2022-11-29T15:42:32.564Z,101645.00
2022-11-29T15:44:59.320Z,101648.00
2022-11-29T15:47:26.493Z,101645.00
2022-11-29T15:49:54.219Z,101647.00
2022-11-29T15:52:38.272Z,101645.00
2022-11-29T15:55:08.184Z,101653.00
2022-11-29T15:57:41.708Z,101656.00
2022-11-29T16:00:15.812Z,101656.00
2022-11-29T16:03:04.810Z,101661.00
2022-11-29T16:05:34.996Z,101661.00
2022-11-29T16:08:05.898Z,101671.00
2022-11-29T16:10:40.211Z,101671.00
2022-11-29T16:13:23.122Z,101670.00
2022-11-29T16:15:49.588Z,101682.00
2022-11-29T16:18:22.185Z,101676.00
2022-11-29T16:21:02.447Z,101676.00
2022-11-29T16:23:41.227Z,101682.00
2022-11-29T16:26:39.740Z,101689.00
2022-11-29T16:29:21.088Z,101687.00
2022-11-29T16:31:47.583Z,101688.00
2022-11-29T16:34:24.670Z,101689.00
2022-11-29T16:37:02.799Z,101692.00
2022-11-29T16:39:30.436Z,101688.00
2022-11-29T16:42:25.022Z,101693.00
2022-11-29T16:45:29.936Z,101698.00
2022-11-29T16:48:00.691Z,101692.00
2022-11-29T16:57:59.616Z,101701.00
2022-11-29T17:00:31.493Z,101702.00
2022-11-29T17:02:58.922Z,101698.00
2022-11-29T17:05:25.585Z,101702.00
2022-11-29T17:07:52.263Z,101703.00
2022-11-29T17:10:23.056Z,101702.00
2022-11-29T17:12:50.265Z,101708.00
2022-11-29T17:15:17.056Z,101704.00
2022-11-29T17:17:56.164Z,101703.00
2022-11-29T17:20:22.608Z,101705.00
2022-11-29T17:22:49.050Z,101708.00
2022-11-29T17:25:15.494Z,101704.00
2022-11-29T17:27:41.934Z,101708.00
2022-11-29T17:30:08.870Z,101710.00
2022-11-29T17:32:35.752Z,101708.00
2022-11-29T17:38:44.378Z,101713.00
2022-11-29T17:41:12.836Z,101724.00
2022-11-29T17:43:39.997Z,101705.00
2022-11-29T17:46:11.203Z,101711.00
2022-11-29T17:48:38.710Z,101724.00
2022-11-29T17:51:22.855Z,101717.00
2022-11-29T17:53:54.766Z,101725.00
2022-11-29T17:56:24.172Z,101729.00
2022-11-29T17:58:52.239Z,101722.00
2022-11-29T18:01:21.090Z,101728.00
2022-11-29T18:03:47.982Z,101731.00
2022-11-29T18:06:19.678Z,101727.00
2022-11-29T18:08:50.817Z,101728.00
2022-11-29T18:11:23.187Z,101733.00
2022-11-29T18:13:50.399Z,101728.00
2022-11-29T18:16:19.335Z,101727.00
2022-11-29T18:18:46.412Z,101738.00
2022-11-29T18:21:13.717Z,101738.00
2022-11-29T18:23:42.532Z,101752.00
2022-11-29T18:26:12.211Z,101745.00
2022-11-29T18:28:40.317Z,101749.00
2022-11-29T18:31:12.446Z,101747.00
2022-11-29T18:33:39.899Z,101748.00
2022-11-29T18:36:10.317Z,101748.00
2022-11-29T18:38:37.607Z,101744.00
2022-11-29T18:41:13.771Z,101744.00
2022-11-29T18:43:40.910Z,101750.00
2022-11-29T18:46:12.116Z,101754.00
2022-11-29T18:48:39.584Z,101756.00
2022-11-29T18:51:11.729Z,101755.00
2022-11-29T18:53:39.382Z,101758.00
2022-11-29T18:56:12.347Z,101754.00
2022-11-29T18:58:41.408Z,101762.00
2022-11-29T19:01:10.520Z,101760.00
2022-11-29T19:03:39.344Z,101759.00
2022-11-29T19:06:08.362Z,101756.00
2022-11-29T19:08:35.085Z,101754.00
2022-11-29T19:11:05.953Z,101759.00
2022-11-29T19:13:33.147Z,101756.00
2022-11-29T19:15:59.760Z,101760.00
2022-11-29T19:18:28.405Z,101761.00
2022-11-29T19:21:16.593Z,101764.00
2022-11-29T19:23:44.181Z,101753.00
2022-11-29T19:26:13.175Z,101757.00
2022-11-29T19:28:41.908Z,101765.00
2022-11-29T19:31:09.149Z,101766.00
2022-11-29T19:33:37.043Z,101762.00
2022-11-29T19:36:15.238Z,101768.00
2022-11-29T19:38:42.385Z,101762.00
2022-11-29T19:41:20.619Z,101762.00
2022-11-29T19:43:48.951Z,101763.00
2022-11-29T19:46:24.834Z,101761.00
2022-11-29T19:48:56.116Z,101758.00
2022-11-29T19:51:23.423Z,101769.00
2022-11-29T19:53:54.228Z,101768.00
2022-11-29T19:56:21.061Z,101766.00
2022-11-29T19:58:47.463Z,101768.00
2022-11-29T20:01:19.180Z,101768.00
2022-11-29T20:03:45.613Z,101773.00
2022-11-29T20:06:13.579Z,101777.00
2022-11-29T20:08:43.323Z,101766.00
2022-11-29T20:11:14.588Z,101777.00
2022-11-29T20:13:43.483Z,101772.00
2022-11-29T20:16:12.665Z,101783.00
2022-11-29T20:18:45.739Z,101785.00
2022-11-29T20:21:27.715Z,101791.00
2022-11-29T20:23:59.207Z,101785.00
2022-11-29T20:26:26.724Z,101782.00
2022-11-29T20:28:53.376Z,101789.00
2022-11-29T20:31:22.560Z,101785.00
2022-11-29T20:33:51.140Z,101792.00
2022-11-29T20:36:38.912Z,101791.00
2022-11-29T20:39:14.394Z,101788.00
2022-11-29T20:41:55.240Z,101783.00
2022-11-29T20:44:33.087Z,101785.00
2022-11-29T20:46:59.975Z,101792.00
2022-11-29T20:49:26.661Z,101784.00
2022-11-29T20:52:02.288Z,101798.00
2022-11-29T20:54:28.941Z,101799.00
2022-11-29T20:56:55.389Z,101791.00
2022-11-29T20:59:21.841Z,101803.00
2022-11-29T21:01:48.426Z,101798.00
2022-11-29T21:04:18.843Z,101804.00
2022-11-29T21:06:48.287Z,101804.00
2022-11-29T21:09:14.733Z,101808.00
2022-11-29T21:11:41.368Z,101806.00
2022-11-29T21:14:09.013Z,101812.00
2022-11-29T21:16:35.597Z,101815.00
2022-11-29T21:19:02.917Z,101813.00
2022-11-29T21:21:50.023Z,101810.00
2022-11-29T21:25:00.908Z,101818.00
2022-11-29T21:27:31.678Z,101809.00
2022-11-29T21:29:58.387Z,101819.00
2022-11-29T21:32:26.310Z,101817.00
2022-11-29T21:34:53.062Z,101819.00
2022-11-29T21:37:24.736Z,101821.00
2022-11-29T21:39:51.525Z,101813.00
2022-11-29T21:42:18.371Z,101823.00
2022-11-29T21:44:45.098Z,101823.00
2022-11-29T21:47:12.375Z,101822.00
2022-11-29T21:49:39.065Z,101823.00
2022-11-29T21:52:06.323Z,101825.00
2022-11-29T21:54:33.295Z,101829.00
2022-11-29T21:56:59.764Z,101826.00
2022-11-29T21:59:26.409Z,101832.00
2022-11-29T22:01:53.029Z,101826.00
2022-11-29T22:04:19.798Z,101831.00
2022-11-29T22:06:47.201Z,101828.00
2022-11-29T22:09:13.911Z,101823.00
2022-11-29T22:11:43.051Z,101829.00
2022-11-29T22:14:14.090Z,101832.00
2022-11-29T22:16:43.305Z,101835.00
2022-11-29T22:19:14.012Z,101836.00
2022-11-29T22:21:41.951Z,101837.00
2022-11-29T22:24:12.966Z,101833.00
2022-11-29T22:26:39.619Z,101831.00
2022-11-29T22:29:06.404Z,101830.00
2022-11-29T22:31:33.212Z,101831.00
2022-11-29T22:33:59.788Z,101824.00
2022-11-29T22:36:26.350Z,101824.00
2022-11-29T22:38:52.870Z,101833.00
2022-11-29T22:41:19.384Z,101842.00
2022-11-29T22:43:45.842Z,101835.00
2022-11-29T22:46:21.993Z,101836.00
2022-11-29T22:48:52.362Z,101834.00
2022-11-29T22:51:21.065Z,101839.00
2022-11-29T22:53:49.990Z,101836.00
2022-11-29T22:56:17.436Z,101850.00
2022-11-29T22:58:44.130Z,101845.00
2022-11-29T23:01:18.778Z,101854.00
2022-11-29T23:03:48.391Z,101847.00
2022-11-29T23:06:16.869Z,101852.00
2022-11-29T23:08:45.139Z,101851.00
2022-11-29T23:11:17.255Z,101861.00
2022-11-29T23:13:43.943Z,101854.00
2022-11-29T23:16:14.042Z,101852.00
2022-11-29T23:18:42.287Z,101859.00
2022-11-29T23:21:12.344Z,101864.00
2022-11-29T23:23:39.027Z,101856.00
2022-11-29T23:26:07.529Z,101855.00
2022-11-29T23:28:35.235Z,101852.00
2022-11-29T23:31:01.781Z,101856.00
2022-11-29T23:33:28.404Z,101853.00
2022-11-29T23:36:06.542Z,101845.00
2022-11-29T23:38:33.510Z,101852.00
2022-11-29T23:41:00.074Z,101842.00
2022-11-29T23:43:30.959Z,101843.00
2022-11-29T23:45:57.746Z,101848.00
2022-11-29T23:48:24.856Z,101848.00
2022-11-29T23:50:51.666Z,101849.00
2022-11-29T23:53:19.158Z,101844.00
2022-11-29T23:55:54.861Z,101848.00
2022-11-29T23:58:21.299Z,101850.00
